Камери на живо
METAR for:LBWN (Varna Intl, --, BU)
Text:LBWN 181630Z 10010KT CAVOK 20/10 Q1019 NOSIG
Temperature: 20.0°C ( 68°F)
Dewpoint: 10.0°C ( 50°F) [RH = 53%]
Pressure (altimeter):30.09 inches Hg (1019.0 mb)
Winds:from the E (100 degrees) at 12 MPH (10 knots; 5.1 m/s)
Visibility:6 or more sm (10+ km)
Ceiling:ceiling and visibility are OK
Clouds:unknown

TAF for:LBWN (Varna Intl, --, BU) issued at 1100 UTC 18 Sep 2020
Text:TAF LBWN 181100Z 1812/1912 04016KT 9999 SCT040
Forecast period:1200 UTC 18 September 2020 to 1200 UTC 19 September 2020
Forecast type:FROM: standard forecast or significant change
Winds:from the NE (40 degrees) at 18 MPH (16 knots; 8.2 m/s)
Visibility:6 or more sm (10+ km)
Ceiling:at least 12,000 feet AGL
Clouds: scattered clouds at 4000 feet AGL